National Geographic Sea Lion — WUR9646 — position and weather

sailwx.info

Track history (hours):
 
Tides and Currents Weather Stations Pressure Air Temp Water Temp Dewpoint Dewpoint Depression Visibility Wind Speed Wind Dir Waves Ship Positions

National Geographic Sea Lion

Owner: Lindblad Expeditions LLC, SEATTLE, WA. More information available from US FCC via Universal Licensing System and Coast Guard Vessel Documentation Center.

Last reported at 2019-Apr-26 02:53 UTC. Time now 2019-Apr-26 03:43 UTC.
Position N 47°56' W 125°15'.

Length 45 m; draft 2.4 m.

Type: Passenger vessel. MMSI: 366396000.

Date/timePositionNaut miles runAvg speedWind from/ knotsBaromVisibWave heightAir tempDewpointWater temp
2019-Apr-26 02:53N 47°56' W 125°15'6 9.1
2019-Apr-26 02:16N 47°50' W 125°16'2 9.1
2019-Apr-26 02:00N 47°48' W 125°16'29 9.5
2019-Apr-25 22:58N 47°19' W 125°15'4 9.4
2019-Apr-25 22:30N 47°15' W 125°15'5 9.4
2019-Apr-25 22:00N 47°10' W 125°15'9 9.2
2019-Apr-25 21:03N 47°01' W 125°14'0 9.2
2019-Apr-25 21:00N 47°01' W 125°14'6 9.2
2019-Apr-25 20:22N 46°55' W 125°14'3 9.0
2019-Apr-25 20:01N 46°52' W 125°14'5 8.9
2019-Apr-25 19:28N 46°47' W 125°13'5 8.9
2019-Apr-25 18:56N 46°42' W 125°13'4 8.6
2019-Apr-25 18:30N 46°39' W 125°12'5 9.2
2019-Apr-25 18:00N 46°34' W 125°12'5 9.3
2019-Apr-25 17:30N 46°30' W 125°12'5 9.3
2019-Apr-25 17:00N 46°25' W 125°12'5 9.3
2019-Apr-25 16:31N 46°20' W 125°12'5 9.3
2019-Apr-25 16:00N 46°16' W 125°12'5 9.2
2019-Apr-25 15:30N 46°11' W 125°11'4 9.0
2019-Apr-25 15:01N 46°06' W 125°11'5 9.0
2019-Apr-25 14:31N 46°02' W 125°11'4 8.8
2019-Apr-25 14:00N 45°58' W 125°11'5 8.6
2019-Apr-25 13:28N 45°53' W 125°10'5 8.8
2019-Apr-25 12:57N 45°48' W 125°10'5 8.9
2019-Apr-25 12:21N 45°43' W 125°10'5 8.8
2019-Apr-25 11:46N 45°38' W 125°10'3 9.0
2019-Apr-25 11:27N 45°35' W 125°09'4 8.9
2019-Apr-25 11:00N 45°31' W 125°09'5 8.5
2019-Apr-25 10:23N 45°26' W 125°09'4 8.4
2019-Apr-25 09:55N 45°22' W 125°09'3 8.4
2019-Apr-25 09:30N 45°18' W 125°08'4 8.3
2019-Apr-25 09:00N 45°14' W 125°08'4 8.1
2019-Apr-25 08:31N 45°10' W 125°08'4 7.9
2019-Apr-25 07:59N 45°06' W 125°08'4 7.8
2019-Apr-25 07:26N 45°02' W 125°07'10 7.5
2019-Apr-25 06:03N 44°52' W 125°07'4 7.4
2019-Apr-25 05:30N 44°47' W 125°06'5 7.1
2019-Apr-25 04:47N 44°42' W 125°06'2 7.0
2019-Apr-25 04:30N 44°40' W 125°06'  
2019-Apr-22 22:55N 38°30' W 124°04'3 7.1
2019-Apr-22 22:25N 38°26' W 124°03'3 7.3
2019-Apr-22 22:01N 38°24' W 124°01'4 7.6
2019-Apr-22 21:30N 38°20' W 123°59'4 7.6
2019-Apr-22 21:01N 38°17' W 123°57'4 7.6
2019-Apr-22 20:31N 38°13' W 123°55'4 7.5
2019-Apr-22 20:00N 38°10' W 123°53'3 7.0
2019-Apr-22 19:30N 38°07' W 123°51'3 6.8
2019-Apr-22 19:01N 38°04' W 123°49'3 6.0
2019-Apr-22 18:31N 38°01' W 123°48'3 5.3
2019-Apr-22 18:01N 37°59' W 123°46'3 5.4
2019-Apr-22 17:30N 37°56' W 123°45'2 4.9
2019-Apr-22 17:01N 37°54' W 123°44'5 5.5
2019-Apr-22 16:11N 37°49' W 123°42'1 5.4
2019-Apr-22 15:58N 37°48' W 123°41'3 5.5
2019-Apr-22 15:27N 37°46' W 123°39'5 5.6
2019-Apr-22 14:34N 37°42' W 123°36'42 5.5
2019-Apr-22 06:50N 37°05' W 123°11'269 6.5
2019-Apr-20 13:21N 33°33' W 119°47'1410.2
2019-Apr-20 12:01N 33°28' W 119°31'010.1
2019-Apr-20 12:00N 33°28' W 119°31'1010.1
2019-Apr-20 11:04N 33°24' W 119°21'1 9.7
2019-Apr-20 10:57N 33°24' W 119°20'7 9.5
2019-Apr-20 10:16N 33°21' W 119°13'5 9.6
2019-Apr-20 09:42N 33°19' W 119°06'310.0
2019-Apr-20 09:24N 33°18' W 119°03'410.0
2019-Apr-20 09:00N 33°17' W 118°59'1210.1
2019-Apr-20 07:50N 33°12' W 118°46'710.1
2019-Apr-20 07:11N 33°09' W 118°39'210.2
2019-Apr-20 06:58N 33°08' W 118°36'510.2
2019-Apr-20 06:30N 33°06' W 118°31'510.1
2019-Apr-20 06:00N 33°04' W 118°25'5 9.9
2019-Apr-20 05:30N 33°02' W 118°20'6 9.9
2019-Apr-20 04:53N 32°59' W 118°13'410.0
2019-Apr-20 04:27N 32°58' W 118°09'510.1
2019-Apr-20 04:00N 32°56' W 118°04'510.2
2019-Apr-20 03:30N 32°53' W 117°58'5 9.9
2019-Apr-20 03:01N 32°51' W 117°53'510.1
2019-Apr-20 02:30N 32°49' W 117°48'5 9.9
2019-Apr-20 02:00N 32°47' W 117°43'5 9.7
2019-Apr-20 01:30N 32°45' W 117°37'5 9.9
2019-Apr-20 01:00N 32°43' W 117°32'5 9.7
2019-Apr-20 00:30N 32°41' W 117°27'5 9.7
2019-Apr-20 00:00N 32°38' W 117°22'5 9.1
2019-Apr-19 23:31N 32°38' W 117°16'4 7.9
2019-Apr-19 23:01N 32°41' W 117°14'3 5.6
2019-Apr-19 22:29N 32°43' W 117°11'2 0.6
2019-Apr-19 19:52N 32°42' W 117°10'0 0.0
2019-Apr-19 18:52N 32°42' W 117°10'0 0.0
2019-Apr-19 18:22N 32°42' W 117°10'0 0.0
2019-Apr-19 17:45N 32°42' W 117°10'0 0.0
2019-Apr-19 17:23N 32°42' W 117°10'0 0.0
2019-Apr-19 16:55N 32°42' W 117°10'0 0.0
2019-Apr-19 16:30N 32°42' W 117°10'0 0.0
2019-Apr-19 16:00N 32°42' W 117°10'0 0.0
2019-Apr-19 15:29N 32°42' W 117°10'0 0.0
2019-Apr-19 14:59N 32°42' W 117°10'0 0.3
2019-Apr-19 14:29N 32°42' W 117°09'2 5.1
2019-Apr-19 14:01N 32°43' W 117°12'3 5.1
2019-Apr-19 13:30N 32°41' W 117°14'3 5.4
2019-Apr-19 13:00N 32°38' W 117°13'3 6.4
2019-Apr-19 12:30N 32°35' W 117°13'3 6.7
2019-Apr-19 12:00N 32°32' W 117°13'4 6.8
2019-Apr-19 11:28N 32°28' W 117°12'6 6.6
2019-Apr-19 10:36N 32°23' W 117°10'5 6.5
2019-Apr-19 09:53N 32°19' W 117°07'2 6.4
2019-Apr-19 09:30N 32°16' W 117°06'3 6.4
2019-Apr-19 09:00N 32°14' W 117°04'4 6.5
2019-Apr-19 08:23N 32°10' W 117°02'  
Track history (hours):
 
Tides and Currents Weather Stations Pressure Air Temp Water Temp Dewpoint Dewpoint Depression Visibility Wind Speed Wind Dir Waves Ship Positions

National Geographic Sea Lion

Owner: Lindblad Expeditions LLC, SEATTLE, WA. More information available from US FCC via Universal Licensing System and Coast Guard Vessel Documentation Center.

Last reported at 2019-Apr-26 02:53 UTC. Time now 2019-Apr-26 03:43 UTC.
Position N 47°56' W 125°15'.

Length 45 m; draft 2.4 m.

Type: Passenger vessel. MMSI: 366396000.

Date/timePositionNaut miles runAvg speedWind from/ knotsBaromVisibWave heightAir tempDewpointWater temp
2019-Apr-26 02:53N 47°56' W 125°15'6 9.1
2019-Apr-26 02:16N 47°50' W 125°16'2 9.1
2019-Apr-26 02:00N 47°48' W 125°16'29 9.5
2019-Apr-25 22:58N 47°19' W 125°15'4 9.4
2019-Apr-25 22:30N 47°15' W 125°15'5 9.4
2019-Apr-25 22:00N 47°10' W 125°15'9 9.2
2019-Apr-25 21:03N 47°01' W 125°14'0 9.2
2019-Apr-25 21:00N 47°01' W 125°14'6 9.2
2019-Apr-25 20:22N 46°55' W 125°14'3 9.0
2019-Apr-25 20:01N 46°52' W 125°14'5 8.9
2019-Apr-25 19:28N 46°47' W 125°13'5 8.9
2019-Apr-25 18:56N 46°42' W 125°13'4 8.6
2019-Apr-25 18:30N 46°39' W 125°12'5 9.2
2019-Apr-25 18:00N 46°34' W 125°12'5 9.3
2019-Apr-25 17:30N 46°30' W 125°12'5 9.3
2019-Apr-25 17:00N 46°25' W 125°12'5 9.3
2019-Apr-25 16:31N 46°20' W 125°12'5 9.3
2019-Apr-25 16:00N 46°16' W 125°12'5 9.2
2019-Apr-25 15:30N 46°11' W 125°11'4 9.0
2019-Apr-25 15:01N 46°06' W 125°11'5 9.0
2019-Apr-25 14:31N 46°02' W 125°11'4 8.8
2019-Apr-25 14:00N 45°58' W 125°11'5 8.6
2019-Apr-25 13:28N 45°53' W 125°10'5 8.8
2019-Apr-25 12:57N 45°48' W 125°10'5 8.9
2019-Apr-25 12:21N 45°43' W 125°10'5 8.8
2019-Apr-25 11:46N 45°38' W 125°10'3 9.0
2019-Apr-25 11:27N 45°35' W 125°09'4 8.9
2019-Apr-25 11:00N 45°31' W 125°09'5 8.5
2019-Apr-25 10:23N 45°26' W 125°09'4 8.4
2019-Apr-25 09:55N 45°22' W 125°09'3 8.4
2019-Apr-25 09:30N 45°18' W 125°08'4 8.3
2019-Apr-25 09:00N 45°14' W 125°08'4 8.1
2019-Apr-25 08:31N 45°10' W 125°08'4 7.9
2019-Apr-25 07:59N 45°06' W 125°08'4 7.8
2019-Apr-25 07:26N 45°02' W 125°07'10 7.5
2019-Apr-25 06:03N 44°52' W 125°07'4 7.4
2019-Apr-25 05:30N 44°47' W 125°06'5 7.1
2019-Apr-25 04:47N 44°42' W 125°06'2 7.0
2019-Apr-25 04:30N 44°40' W 125°06'  
2019-Apr-22 22:55N 38°30' W 124°04'3 7.1
2019-Apr-22 22:25N 38°26' W 124°03'3 7.3
2019-Apr-22 22:01N 38°24' W 124°01'4 7.6
2019-Apr-22 21:30N 38°20' W 123°59'4 7.6
2019-Apr-22 21:01N 38°17' W 123°57'4 7.6
2019-Apr-22 20:31N 38°13' W 123°55'4 7.5
2019-Apr-22 20:00N 38°10' W 123°53'3 7.0
2019-Apr-22 19:30N 38°07' W 123°51'3 6.8
2019-Apr-22 19:01N 38°04' W 123°49'3 6.0
2019-Apr-22 18:31N 38°01' W 123°48'3 5.3
2019-Apr-22 18:01N 37°59' W 123°46'3 5.4
2019-Apr-22 17:30N 37°56' W 123°45'2 4.9
2019-Apr-22 17:01N 37°54' W 123°44'5 5.5
2019-Apr-22 16:11N 37°49' W 123°42'1 5.4
2019-Apr-22 15:58N 37°48' W 123°41'3 5.5
2019-Apr-22 15:27N 37°46' W 123°39'5 5.6
2019-Apr-22 14:34N 37°42' W 123°36'42 5.5
2019-Apr-22 06:50N 37°05' W 123°11'269 6.5
2019-Apr-20 13:21N 33°33' W 119°47'1410.2
2019-Apr-20 12:01N 33°28' W 119°31'010.1
2019-Apr-20 12:00N 33°28' W 119°31'1010.1
2019-Apr-20 11:04N 33°24' W 119°21'1 9.7
2019-Apr-20 10:57N 33°24' W 119°20'7 9.5
2019-Apr-20 10:16N 33°21' W 119°13'5 9.6
2019-Apr-20 09:42N 33°19' W 119°06'310.0
2019-Apr-20 09:24N 33°18' W 119°03'410.0
2019-Apr-20 09:00N 33°17' W 118°59'1210.1
2019-Apr-20 07:50N 33°12' W 118°46'710.1
2019-Apr-20 07:11N 33°09' W 118°39'210.2
2019-Apr-20 06:58N 33°08' W 118°36'510.2
2019-Apr-20 06:30N 33°06' W 118°31'510.1
2019-Apr-20 06:00N 33°04' W 118°25'5 9.9
2019-Apr-20 05:30N 33°02' W 118°20'6 9.9
2019-Apr-20 04:53N 32°59' W 118°13'410.0
2019-Apr-20 04:27N 32°58' W 118°09'510.1
2019-Apr-20 04:00N 32°56' W 118°04'510.2
2019-Apr-20 03:30N 32°53' W 117°58'5 9.9
2019-Apr-20 03:01N 32°51' W 117°53'510.1
2019-Apr-20 02:30N 32°49' W 117°48'5 9.9
2019-Apr-20 02:00N 32°47' W 117°43'5 9.7
2019-Apr-20 01:30N 32°45' W 117°37'5 9.9
2019-Apr-20 01:00N 32°43' W 117°32'5 9.7
2019-Apr-20 00:30N 32°41' W 117°27'5 9.7
2019-Apr-20 00:00N 32°38' W 117°22'5 9.1
2019-Apr-19 23:31N 32°38' W 117°16'4 7.9
2019-Apr-19 23:01N 32°41' W 117°14'3 5.6
2019-Apr-19 22:29N 32°43' W 117°11'2 0.6
2019-Apr-19 19:52N 32°42' W 117°10'0 0.0
2019-Apr-19 18:52N 32°42' W 117°10'0 0.0
2019-Apr-19 18:22N 32°42' W 117°10'0 0.0
2019-Apr-19 17:45N 32°42' W 117°10'0 0.0
2019-Apr-19 17:23N 32°42' W 117°10'0 0.0
2019-Apr-19 16:55N 32°42' W 117°10'0 0.0
2019-Apr-19 16:30N 32°42' W 117°10'0 0.0
2019-Apr-19 16:00N 32°42' W 117°10'0 0.0
2019-Apr-19 15:29N 32°42' W 117°10'0 0.0
2019-Apr-19 14:59N 32°42' W 117°10'0 0.3
2019-Apr-19 14:29N 32°42' W 117°09'2 5.1
2019-Apr-19 14:01N 32°43' W 117°12'3 5.1
2019-Apr-19 13:30N 32°41' W 117°14'3 5.4
2019-Apr-19 13:00N 32°38' W 117°13'3 6.4
2019-Apr-19 12:30N 32°35' W 117°13'3 6.7
2019-Apr-19 12:00N 32°32' W 117°13'4 6.8
2019-Apr-19 11:28N 32°28' W 117°12'6 6.6
2019-Apr-19 10:36N 32°23' W 117°10'5 6.5
2019-Apr-19 09:53N 32°19' W 117°07'2 6.4
2019-Apr-19 09:30N 32°16' W 117°06'3 6.4
2019-Apr-19 09:00N 32°14' W 117°04'4 6.5
2019-Apr-19 08:23N 32°10' W 117°02'  

Dump ship's entire track history